createdAt,value
2018-03-03T00:01:12.875Z,-7.86
2018-03-03T00:03:38.605Z,-7.92
2018-03-03T00:06:04.352Z,-7.84
2018-03-03T00:08:30.086Z,-7.92
2018-03-03T00:10:55.840Z,-7.84
2018-03-03T00:13:21.579Z,-7.90
2018-03-03T00:15:47.319Z,-7.93
2018-03-03T00:18:13.060Z,-7.90
2018-03-03T00:20:38.826Z,-7.88
2018-03-03T00:23:04.561Z,-7.85
2018-03-03T00:25:30.328Z,-7.89
2018-03-03T00:27:56.066Z,-7.88
2018-03-03T00:30:21.811Z,-7.88
2018-03-03T00:32:47.560Z,-7.86
2018-03-03T00:35:13.315Z,-7.93
2018-03-03T00:37:39.059Z,-7.92
2018-03-03T00:40:04.812Z,-7.93
2018-03-03T00:42:30.549Z,-7.86
2018-03-03T00:44:56.287Z,-7.86
2018-03-03T00:47:22.034Z,-7.85
2018-03-03T00:49:47.762Z,-7.93
2018-03-03T00:52:13.528Z,-7.98
2018-03-03T00:54:39.253Z,-8.01
2018-03-03T00:57:05.008Z,-8.01
2018-03-03T00:59:30.756Z,-8.07
2018-03-03T01:01:56.506Z,-8.06
2018-03-03T01:04:22.253Z,-8.05
2018-03-03T01:06:48.003Z,-8.08
2018-03-03T01:09:13.743Z,-7.97
2018-03-03T01:11:39.503Z,-7.94
2018-03-03T01:14:05.259Z,-8.08
2018-03-03T01:16:31.010Z,-8.04
2018-03-03T01:18:56.770Z,-8.11
2018-03-03T01:21:22.517Z,-8.08
2018-03-03T01:23:48.271Z,-8.06
2018-03-03T01:26:14.025Z,-8.08
2018-03-03T01:28:39.766Z,-8.30
2018-03-03T01:31:05.527Z,-8.18
2018-03-03T01:33:31.266Z,-8.18
2018-03-03T01:35:57.029Z,-8.17
2018-03-03T01:38:22.770Z,-8.19
2018-03-03T01:40:48.522Z,-8.21
2018-03-03T01:43:14.474Z,-8.27
2018-03-03T01:45:40.217Z,-8.25
2018-03-03T01:48:05.962Z,-8.29
2018-03-03T01:50:31.694Z,-8.25
2018-03-03T01:52:57.446Z,-8.24
2018-03-03T01:55:23.182Z,-8.22
2018-03-03T01:57:48.927Z,-8.20
2018-03-03T02:00:14.657Z,-8.11
2018-03-03T02:02:40.412Z,-8.00
2018-03-03T02:05:06.153Z,-8.02
2018-03-03T02:07:31.901Z,-8.18
2018-03-03T02:09:57.639Z,-8.09
2018-03-03T02:12:23.390Z,-8.17
2018-03-03T02:14:49.126Z,-8.22
2018-03-03T02:17:14.865Z,-8.24
2018-03-03T02:19:40.606Z,-8.30
2018-03-03T02:22:06.334Z,-8.20
2018-03-03T02:24:32.062Z,-8.27
2018-03-03T02:26:57.807Z,-8.25
2018-03-03T02:29:23.556Z,-8.26
2018-03-03T02:31:56.410Z,-8.29
2018-03-03T02:34:22.190Z,-8.29
2018-03-03T02:36:47.930Z,-8.26
2018-03-03T02:39:13.671Z,-8.31
2018-03-03T02:41:39.411Z,-8.24
2018-03-03T02:44:05.163Z,-8.24
2018-03-03T02:46:30.901Z,-8.31
2018-03-03T02:48:56.664Z,-8.28
2018-03-03T02:51:22.444Z,-8.31
2018-03-03T02:53:48.204Z,-8.29
2018-03-03T02:56:13.943Z,-8.35
2018-03-03T02:58:39.706Z,-8.36
2018-03-03T03:01:05.451Z,-8.32
2018-03-03T03:03:31.194Z,-8.32
2018-03-03T03:05:56.954Z,-8.37
2018-03-03T03:08:22.697Z,-8.41
2018-03-03T03:10:48.445Z,-8.40
2018-03-03T03:13:14.222Z,-8.40
2018-03-03T03:15:40.130Z,-8.44
2018-03-03T03:18:05.852Z,-8.43
2018-03-03T03:20:31.597Z,-8.43
2018-03-03T03:22:57.351Z,-8.47
2018-03-03T03:25:23.088Z,-8.47
2018-03-03T03:27:48.829Z,-8.44
2018-03-03T03:30:14.574Z,-8.39
2018-03-03T03:32:40.328Z,-8.44
2018-03-03T03:35:06.093Z,-8.47
2018-03-03T03:37:31.823Z,-8.45
2018-03-03T03:39:57.562Z,-8.48
2018-03-03T03:42:23.303Z,-8.47
2018-03-03T03:44:49.047Z,-8.55
2018-03-03T03:47:14.779Z,-8.56
2018-03-03T03:49:40.598Z,-8.53
2018-03-03T03:52:06.334Z,-8.62
2018-03-03T03:54:32.081Z,-8.57
2018-03-03T03:56:57.814Z,-8.62
2018-03-03T03:59:23.675Z,-8.62
2018-03-03T04:01:49.393Z,-8.66
2018-03-03T04:04:15.167Z,-8.60
2018-03-03T04:06:40.878Z,-8.65
2018-03-03T04:09:06.618Z,-8.64
2018-03-03T04:11:32.390Z,-8.70
2018-03-03T04:13:58.122Z,-8.60
2018-03-03T04:16:23.871Z,-8.67
2018-03-03T04:18:49.613Z,-8.67
2018-03-03T04:21:15.370Z,-8.60
2018-03-03T04:23:41.114Z,-8.67
2018-03-03T04:26:06.874Z,-8.68
2018-03-03T04:28:32.621Z,-8.55
2018-03-03T04:30:59.025Z,-8.67
2018-03-03T04:33:25.189Z,-8.66
2018-03-03T04:35:50.994Z,-8.67
2018-03-03T04:38:16.729Z,-8.69
2018-03-03T04:40:42.484Z,-8.63
2018-03-03T04:43:08.225Z,-8.70
2018-03-03T04:45:33.965Z,-8.74
2018-03-03T04:47:59.712Z,-8.78
2018-03-03T04:50:25.462Z,-8.68
2018-03-03T04:52:51.202Z,-8.80
2018-03-03T04:55:16.966Z,-8.81
2018-03-03T04:57:42.721Z,-8.79
2018-03-03T05:00:09.370Z,-8.83
2018-03-03T05:05:45.794Z,-8.86
2018-03-03T05:08:11.534Z,-9.00
2018-03-03T05:10:38.238Z,-8.96
2018-03-03T05:16:10.774Z,-9.08
2018-03-03T05:18:42.564Z,-9.09
2018-03-03T05:21:10.144Z,-9.07
2018-03-03T05:23:41.999Z,-9.07
2018-03-03T05:26:13.824Z,-9.08
2018-03-03T05:28:45.631Z,-9.09
2018-03-03T05:31:17.457Z,-9.09
2018-03-03T05:36:44.675Z,-9.11
2018-03-03T05:39:16.486Z,-9.14
2018-03-03T05:44:51.090Z,-9.15
2018-03-03T05:47:22.934Z,-9.18
2018-03-03T05:49:54.766Z,-9.10
2018-03-03T05:55:26.779Z,-9.05
2018-03-03T06:01:14.991Z,-9.05
2018-03-03T06:07:04.959Z,-9.14
2018-03-03T06:09:30.714Z,-9.19
2018-03-03T06:11:56.469Z,-9.21
2018-03-03T06:14:22.215Z,-9.11
2018-03-03T06:16:47.955Z,-9.16
2018-03-03T06:19:13.706Z,-9.19
2018-03-03T06:21:39.437Z,-9.12
2018-03-03T06:24:05.198Z,-9.09
2018-03-03T06:26:30.929Z,-9.16
2018-03-03T06:28:56.673Z,-9.21
2018-03-03T06:31:22.405Z,-9.15
2018-03-03T06:33:48.150Z,-9.08
2018-03-03T06:36:13.882Z,-9.23
2018-03-03T06:38:39.628Z,-9.14
2018-03-03T06:41:05.351Z,-9.10
2018-03-03T06:43:31.082Z,-9.13
2018-03-03T06:45:56.818Z,-9.07
2018-03-03T06:48:22.561Z,-9.12
2018-03-03T06:50:48.293Z,-9.05
2018-03-03T06:53:14.037Z,-9.02
2018-03-03T06:55:39.770Z,-8.92
2018-03-03T06:58:05.502Z,-8.88
2018-03-03T07:00:31.253Z,-8.88
2018-03-03T07:02:56.992Z,-8.78
2018-03-03T07:05:22.747Z,-8.72
2018-03-03T07:07:48.494Z,-8.65
2018-03-03T07:10:14.244Z,-8.66
2018-03-03T07:12:39.978Z,-8.51
2018-03-03T07:15:13.749Z,-8.43
2018-03-03T07:17:39.490Z,-8.28
2018-03-03T07:20:05.237Z,-8.15
2018-03-03T07:22:30.987Z,-8.12
2018-03-03T07:24:56.722Z,-8.04
2018-03-03T07:27:22.445Z,-7.90
2018-03-03T07:29:48.185Z,-7.82
2018-03-03T07:32:13.922Z,-7.77
2018-03-03T07:34:39.683Z,-7.79
2018-03-03T07:37:05.427Z,-7.60
2018-03-03T07:39:31.194Z,-7.55
2018-03-03T07:41:56.921Z,-7.42
2018-03-03T07:44:22.701Z,-7.41
2018-03-03T07:46:48.443Z,-7.38
2018-03-03T07:49:14.205Z,-7.27
2018-03-03T07:51:39.946Z,-7.21
2018-03-03T07:54:05.687Z,-7.19
2018-03-03T07:56:43.887Z,-7.08
2018-03-03T07:59:09.627Z,-6.93
2018-03-03T08:01:35.394Z,-6.82
2018-03-03T08:04:01.128Z,-6.87
2018-03-03T08:06:26.879Z,-6.80
2018-03-03T08:08:52.624Z,-6.71
2018-03-03T08:11:18.374Z,-6.78
2018-03-03T08:13:44.119Z,-6.62
2018-03-03T08:16:09.877Z,-6.49
2018-03-03T08:18:35.619Z,-6.43
2018-03-03T08:21:01.382Z,-6.30
2018-03-03T08:23:27.119Z,-6.20
2018-03-03T08:25:52.885Z,-6.27
2018-03-03T08:28:18.634Z,-6.16
2018-03-03T08:30:44.379Z,-6.31
2018-03-03T08:33:10.118Z,-6.34
2018-03-03T08:35:35.875Z,-6.29
2018-03-03T08:38:01.632Z,-6.30
2018-03-03T08:40:27.383Z,-5.96
2018-03-03T08:42:53.125Z,-5.91
2018-03-03T08:45:18.870Z,-5.72
2018-03-03T08:47:44.605Z,-5.51
2018-03-03T08:50:10.341Z,-5.51
2018-03-03T08:52:36.107Z,-5.58
2018-03-03T08:55:01.847Z,-5.46
2018-03-03T08:57:27.589Z,-5.47
2018-03-03T08:59:53.353Z,-5.50
2018-03-03T09:02:19.103Z,-5.24
2018-03-03T09:04:44.859Z,-5.43
2018-03-03T09:07:10.617Z,-5.33
2018-03-03T09:09:36.359Z,-5.43
2018-03-03T09:12:02.114Z,-5.19
2018-03-03T09:14:27.859Z,-5.01
2018-03-03T09:16:53.602Z,-5.23
2018-03-03T09:19:19.340Z,-5.27
2018-03-03T09:21:45.090Z,-5.10
2018-03-03T09:24:10.814Z,-5.14
2018-03-03T09:26:36.576Z,-4.84
2018-03-03T09:29:02.311Z,-4.91
2018-03-03T09:31:28.042Z,-4.97
2018-03-03T09:33:53.782Z,-4.66
2018-03-03T09:36:19.518Z,-4.64
2018-03-03T09:38:45.264Z,-4.52
2018-03-03T09:41:11.035Z,-4.54
2018-03-03T09:43:36.809Z,-4.22
2018-03-03T09:46:02.558Z,-4.05
2018-03-03T09:48:28.322Z,-3.89
2018-03-03T09:50:54.069Z,-3.75
2018-03-03T09:53:19.837Z,-3.60
2018-03-03T09:55:45.582Z,-3.48
2018-03-03T09:58:11.339Z,-3.47
2018-03-03T10:00:37.090Z,-3.39
2018-03-03T10:03:02.869Z,-3.47
2018-03-03T10:05:28.612Z,-3.38
2018-03-03T10:07:54.341Z,-3.23
2018-03-03T10:10:20.094Z,-3.30
2018-03-03T10:12:45.847Z,-3.20
2018-03-03T10:15:11.588Z,-3.48
2018-03-03T10:17:37.343Z,-3.10
2018-03-03T10:20:03.093Z,-2.92
2018-03-03T10:22:28.852Z,-3.35
2018-03-03T10:24:54.585Z,-3.57
2018-03-03T10:27:20.353Z,-3.46
2018-03-03T10:29:46.099Z,-3.04
2018-03-03T10:32:11.852Z,-2.89
2018-03-03T10:34:37.638Z,-2.86
2018-03-03T10:37:03.370Z,-2.89
2018-03-03T10:39:29.131Z,-2.95
2018-03-03T10:41:54.886Z,-3.15
2018-03-03T10:44:20.638Z,-2.84
2018-03-03T10:46:46.390Z,-2.59
2018-03-03T10:49:12.143Z,-2.74
2018-03-03T10:51:37.913Z,-2.91
2018-03-03T10:54:03.662Z,-2.72
2018-03-03T10:56:29.408Z,-2.57
2018-03-03T10:58:55.146Z,-2.50
2018-03-03T11:01:20.894Z,-2.49
2018-03-03T11:03:46.639Z,-2.48
2018-03-03T11:06:12.375Z,-2.69
2018-03-03T11:08:38.155Z,-2.45
2018-03-03T11:11:03.911Z,-2.43
2018-03-03T11:13:29.651Z,-2.23
2018-03-03T11:15:55.422Z,-2.16
2018-03-03T11:18:21.157Z,-2.46
2018-03-03T11:20:46.928Z,-2.87
2018-03-03T11:23:12.666Z,-2.09
2018-03-03T11:25:38.430Z,-2.38
2018-03-03T11:28:04.187Z,-2.93
2018-03-03T11:30:29.938Z,-2.43
2018-03-03T11:32:55.697Z,-2.70
2018-03-03T11:35:21.458Z,-2.40
2018-03-03T11:37:47.208Z,-2.38
2018-03-03T11:40:12.962Z,-2.07
2018-03-03T11:42:38.714Z,-2.36
2018-03-03T11:45:04.489Z,-1.66
2018-03-03T11:47:30.230Z,-1.73
2018-03-03T11:49:55.984Z,-2.02
2018-03-03T11:52:21.777Z,-2.21
2018-03-03T11:54:47.514Z,-2.36
2018-03-03T11:57:13.261Z,-2.29
2018-03-03T11:59:38.994Z,-1.98
2018-03-03T12:02:04.749Z,-1.72
2018-03-03T12:04:30.702Z,-1.72
2018-03-03T12:06:56.579Z,-1.98
2018-03-03T12:09:22.374Z,-1.84
2018-03-03T12:11:48.138Z,-1.35
2018-03-03T12:14:13.890Z,-1.47
2018-03-03T12:16:39.651Z,-1.97
2018-03-03T12:19:05.396Z,-2.00
2018-03-03T12:21:31.181Z,-1.74
2018-03-03T12:23:56.892Z,-1.93
2018-03-03T12:26:22.914Z,-2.00
2018-03-03T12:28:48.659Z,-1.85
2018-03-03T12:31:14.417Z,-1.64
2018-03-03T12:33:40.176Z,-1.99
2018-03-03T12:36:05.922Z,-1.63
2018-03-03T12:38:31.686Z,-1.47
2018-03-03T12:40:57.524Z,-1.98
2018-03-03T12:43:23.278Z,-1.75
2018-03-03T12:45:49.039Z,-1.43
2018-03-03T12:48:15.314Z,-1.43
2018-03-03T12:50:41.059Z,-1.08
2018-03-03T12:53:06.810Z,-1.19
2018-03-03T12:55:32.545Z,-1.59
2018-03-03T12:57:58.460Z,-1.21
2018-03-03T13:00:24.205Z,-1.01
2018-03-03T13:02:49.950Z,-1.34
2018-03-03T13:05:15.705Z,-1.46
2018-03-03T13:07:41.459Z,-1.40
2018-03-03T13:10:07.218Z,-1.41
2018-03-03T13:12:32.964Z,-1.10
2018-03-03T13:14:58.726Z,-1.19
2018-03-03T13:17:24.471Z,-1.36
2018-03-03T13:19:50.213Z,-1.22
2018-03-03T13:22:15.962Z,-1.40
2018-03-03T13:24:41.710Z,-1.43
2018-03-03T13:27:07.454Z,-1.65
2018-03-03T13:29:33.235Z,-1.39
2018-03-03T13:31:58.974Z,-1.49
2018-03-03T13:34:24.738Z,-1.41
2018-03-03T13:36:50.487Z,-1.31
2018-03-03T13:39:16.247Z,-1.24
2018-03-03T13:41:42.000Z,-1.47
2018-03-03T13:44:07.751Z,-1.52
2018-03-03T13:46:33.504Z,-1.55
2018-03-03T13:48:59.387Z,-1.70
2018-03-03T13:51:25.127Z,-1.75
2018-03-03T13:53:50.891Z,-1.70
2018-03-03T13:56:16.687Z,-1.68
2018-03-03T13:58:42.398Z,-1.67
2018-03-03T14:01:08.170Z,-1.59
2018-03-03T14:03:34.122Z,-1.64
2018-03-03T14:05:59.914Z,-1.68
2018-03-03T14:08:25.669Z,-1.62
2018-03-03T14:10:51.431Z,-1.64
2018-03-03T14:13:17.253Z,-1.56
2018-03-03T14:15:43.011Z,-1.75
2018-03-03T14:18:08.899Z,-1.65
2018-03-03T14:20:34.659Z,-1.83
2018-03-03T14:23:00.438Z,-1.86
2018-03-03T14:25:26.193Z,-1.86
2018-03-03T14:27:52.062Z,-1.85
2018-03-03T14:30:17.914Z,-1.88
2018-03-03T14:32:43.854Z,-1.78
2018-03-03T14:35:09.634Z,-1.91
2018-03-03T14:37:35.403Z,-2.00
2018-03-03T14:40:01.155Z,-1.92
2018-03-03T14:42:26.948Z,-1.76
2018-03-03T14:44:52.706Z,-1.84
2018-03-03T14:47:18.465Z,-1.88
2018-03-03T14:49:44.227Z,-1.88
2018-03-03T14:52:09.995Z,-1.91
2018-03-03T14:54:35.746Z,-1.91
2018-03-03T14:57:01.540Z,-2.01
2018-03-03T14:59:27.278Z,-1.92
2018-03-03T15:01:53.049Z,-2.04
2018-03-03T15:04:18.795Z,-2.14
2018-03-03T15:06:44.559Z,-1.94
2018-03-03T15:09:10.322Z,-1.97
2018-03-03T15:11:36.160Z,-2.08
2018-03-03T15:14:01.930Z,-2.01
2018-03-03T15:16:27.695Z,-2.05
2018-03-03T15:18:53.469Z,-2.17
2018-03-03T15:21:19.215Z,-2.28
2018-03-03T15:23:44.979Z,-2.20
2018-03-03T15:26:10.747Z,-2.17
2018-03-03T15:28:36.514Z,-2.16
2018-03-03T15:31:02.278Z,-2.22
2018-03-03T15:33:28.045Z,-2.25
2018-03-03T15:35:53.790Z,-2.27
2018-03-03T15:38:19.549Z,-2.29
2018-03-03T15:40:45.306Z,-2.33
2018-03-03T15:43:11.077Z,-2.34
2018-03-03T15:45:36.827Z,-2.34
2018-03-03T15:48:02.593Z,-2.39
2018-03-03T15:50:28.350Z,-2.48
2018-03-03T15:52:54.089Z,-2.49
2018-03-03T15:55:19.831Z,-2.55
2018-03-03T15:57:45.594Z,-2.58
2018-03-03T16:00:11.331Z,-2.58
2018-03-03T16:02:37.065Z,-2.60
2018-03-03T16:05:02.826Z,-2.63
2018-03-03T16:07:28.563Z,-2.66
2018-03-03T16:09:55.349Z,-2.71
2018-03-03T16:12:21.244Z,-2.78
2018-03-03T16:14:46.972Z,-2.88
2018-03-03T16:17:12.759Z,-2.86
2018-03-03T16:19:38.465Z,-2.92
2018-03-03T16:22:04.209Z,-2.88
2018-03-03T16:24:29.947Z,-2.96
2018-03-03T16:26:55.686Z,-2.98
2018-03-03T16:29:21.423Z,-2.99
2018-03-03T16:31:47.176Z,-3.07
2018-03-03T16:34:12.922Z,-3.10
2018-03-03T16:36:38.670Z,-3.13
2018-03-03T16:39:04.491Z,-3.18
2018-03-03T16:41:30.177Z,-3.24
2018-03-03T16:43:55.927Z,-3.26
2018-03-03T16:46:21.668Z,-3.30
2018-03-03T16:48:47.418Z,-3.34
2018-03-03T16:51:13.174Z,-3.39
2018-03-03T16:53:38.910Z,-3.39
2018-03-03T16:56:04.670Z,-3.43
2018-03-03T16:58:30.415Z,-3.44
2018-03-03T17:00:56.180Z,-3.47
2018-03-03T17:03:21.913Z,-3.49
2018-03-03T17:05:47.653Z,-3.53
2018-03-03T17:08:13.483Z,-3.50
2018-03-03T17:10:39.256Z,-3.57
2018-03-03T17:13:04.999Z,-3.61
2018-03-03T17:15:30.766Z,-3.62
2018-03-03T17:17:56.511Z,-3.67
2018-03-03T17:20:22.284Z,-3.66
2018-03-03T17:22:48.038Z,-3.70
2018-03-03T17:25:13.768Z,-3.73
2018-03-03T17:27:39.573Z,-3.76
2018-03-03T17:30:05.287Z,-3.77
2018-03-03T17:32:31.060Z,-3.85
2018-03-03T17:34:56.808Z,-3.84
2018-03-03T17:37:22.594Z,-3.86
2018-03-03T17:39:48.313Z,-3.85
2018-03-03T17:42:14.059Z,-3.88
2018-03-03T17:44:39.814Z,-3.94
2018-03-03T17:47:05.559Z,-4.01
2018-03-03T17:49:31.313Z,-4.05
2018-03-03T17:51:57.071Z,-4.03
2018-03-03T17:54:22.816Z,-4.06
2018-03-03T17:56:48.559Z,-4.11
2018-03-03T17:59:14.326Z,-4.11
2018-03-03T18:01:40.079Z,-4.08
2018-03-03T18:04:05.849Z,-4.01
2018-03-03T18:06:31.597Z,-4.11
2018-03-03T18:08:57.370Z,-4.12
2018-03-03T18:11:23.156Z,-4.11
2018-03-03T18:13:56.819Z,-4.11
2018-03-03T18:16:23.155Z,-4.11
2018-03-03T18:18:49.506Z,-4.13
2018-03-03T18:21:15.308Z,-4.12
2018-03-03T18:23:41.092Z,-4.19
2018-03-03T18:26:06.889Z,-4.15
2018-03-03T18:28:32.653Z,-4.16
2018-03-03T18:30:58.543Z,-4.15
2018-03-03T18:33:24.330Z,-4.14
2018-03-03T18:35:50.081Z,-4.16
2018-03-03T18:38:15.841Z,-4.23
2018-03-03T18:40:41.587Z,-4.22
2018-03-03T18:43:07.334Z,-4.24
2018-03-03T18:45:33.097Z,-4.24
2018-03-03T18:47:58.841Z,-4.28
2018-03-03T18:50:24.649Z,-4.31
2018-03-03T18:52:50.350Z,-4.31
2018-03-03T18:55:16.106Z,-4.30
2018-03-03T18:57:41.858Z,-4.35
2018-03-03T19:00:07.647Z,-4.30
2018-03-03T19:02:33.403Z,-4.38
2018-03-03T19:04:59.161Z,-4.39
2018-03-03T19:07:24.929Z,-4.41
2018-03-03T19:09:50.674Z,-4.45
2018-03-03T19:12:16.425Z,-4.50
2018-03-03T19:14:42.179Z,-4.45
2018-03-03T19:17:07.947Z,-4.47
2018-03-03T19:19:33.708Z,-4.53
2018-03-03T19:21:59.453Z,-4.57
2018-03-03T19:24:25.203Z,-4.43
2018-03-03T19:26:50.946Z,-4.46
2018-03-03T19:29:16.681Z,-4.50
2018-03-03T19:31:42.439Z,-4.65
2018-03-03T19:34:08.175Z,-4.70
2018-03-03T19:36:33.931Z,-4.67
2018-03-03T19:38:59.654Z,-4.67
2018-03-03T19:41:25.406Z,-4.73
2018-03-03T19:43:51.133Z,-4.62
2018-03-03T19:46:16.882Z,-4.71
2018-03-03T19:48:42.626Z,-4.64
2018-03-03T19:51:08.378Z,-4.66
2018-03-03T19:53:34.164Z,-4.72
2018-03-03T19:55:59.885Z,-4.68
2018-03-03T19:58:25.645Z,-4.67
2018-03-03T20:03:23.895Z,-4.67
2018-03-03T20:05:49.650Z,-4.67
2018-03-03T20:08:15.406Z,-4.76
2018-03-03T20:10:41.190Z,-4.77
2018-03-03T20:13:06.956Z,-4.80
2018-03-03T20:15:32.696Z,-4.78
2018-03-03T20:17:58.443Z,-4.89
2018-03-03T20:20:24.189Z,-4.77
2018-03-03T20:22:49.938Z,-4.81
2018-03-03T20:25:15.693Z,-4.94
2018-03-03T20:27:41.450Z,-4.83
2018-03-03T20:30:07.192Z,-4.86
2018-03-03T20:32:32.953Z,-4.82
2018-03-03T20:34:58.695Z,-4.84
2018-03-03T20:37:24.452Z,-4.87
2018-03-03T20:39:50.202Z,-4.88
2018-03-03T20:42:15.954Z,-4.81
2018-03-03T20:44:41.698Z,-4.81
2018-03-03T20:47:07.453Z,-4.85
2018-03-03T20:49:33.202Z,-4.85
2018-03-03T20:51:58.966Z,-4.83
2018-03-03T20:54:24.721Z,-4.83
2018-03-03T20:56:50.479Z,-4.85
2018-03-03T20:59:16.220Z,-4.92
2018-03-03T21:01:41.961Z,-4.96
2018-03-03T21:04:07.716Z,-4.99
2018-03-03T21:06:33.451Z,-4.95
2018-03-03T21:08:59.204Z,-4.89
2018-03-03T21:11:26.753Z,-4.90
2018-03-03T21:13:52.534Z,-4.84
2018-03-03T21:16:18.278Z,-4.96
2018-03-03T21:18:44.030Z,-5.01
2018-03-03T21:21:09.778Z,-4.98
2018-03-03T21:23:35.539Z,-5.00
2018-03-03T21:26:01.295Z,-4.97
2018-03-03T21:28:27.049Z,-4.97
2018-03-03T21:30:52.816Z,-5.06
2018-03-03T21:33:18.587Z,-5.12
2018-03-03T21:35:44.370Z,-5.07
2018-03-03T21:38:10.125Z,-5.09
2018-03-03T21:40:35.865Z,-5.10
2018-03-03T21:43:01.622Z,-5.10
2018-03-03T21:45:27.376Z,-5.12
2018-03-03T21:47:53.122Z,-5.20
2018-03-03T21:50:18.870Z,-5.21
2018-03-03T21:52:44.626Z,-5.26
2018-03-03T21:55:10.388Z,-5.21
2018-03-03T21:57:36.156Z,-5.22
2018-03-03T22:00:01.920Z,-5.28
2018-03-03T22:02:27.677Z,-5.35
2018-03-03T22:04:53.454Z,-5.31
2018-03-03T22:07:19.186Z,-5.33
2018-03-03T22:09:44.942Z,-5.30
2018-03-03T22:12:10.920Z,-5.30
2018-03-03T22:14:36.673Z,-5.33
2018-03-03T22:17:02.397Z,-5.39
2018-03-03T22:19:28.146Z,-5.35
2018-03-03T22:21:53.890Z,-5.41
2018-03-03T22:24:19.646Z,-5.38
2018-03-03T22:26:52.392Z,-5.45
2018-03-03T22:29:18.135Z,-5.44
2018-03-03T22:31:43.870Z,-5.41
2018-03-03T22:34:09.616Z,-5.49
2018-03-03T22:36:35.354Z,-5.42
2018-03-03T22:39:01.114Z,-5.47
2018-03-03T22:41:26.878Z,-5.28
2018-03-03T22:43:52.618Z,-5.38
2018-03-03T22:46:18.370Z,-5.43
2018-03-03T22:48:44.105Z,-5.44
2018-03-03T22:51:09.851Z,-5.42
2018-03-03T22:53:35.590Z,-5.40
2018-03-03T22:56:01.330Z,-5.41
2018-03-03T22:58:27.071Z,-5.33
2018-03-03T23:00:53.147Z,-5.43
2018-03-03T23:03:18.889Z,-5.37
2018-03-03T23:05:44.639Z,-5.41
2018-03-03T23:08:10.386Z,-5.51
2018-03-03T23:10:36.137Z,-5.45
2018-03-03T23:13:01.865Z,-5.54
2018-03-03T23:15:27.627Z,-5.55
2018-03-03T23:17:53.361Z,-5.64
2018-03-03T23:20:19.116Z,-5.59
2018-03-03T23:22:44.855Z,-5.62
2018-03-03T23:25:10.609Z,-5.64
2018-03-03T23:27:36.351Z,-5.61
2018-03-03T23:30:02.119Z,-5.62
2018-03-03T23:32:27.858Z,-5.75
2018-03-03T23:34:53.602Z,-5.68
2018-03-03T23:37:19.338Z,-5.62
2018-03-03T23:39:45.072Z,-5.74
2018-03-03T23:42:10.834Z,-5.65
2018-03-03T23:44:36.566Z,-5.65
2018-03-03T23:47:02.314Z,-5.68
2018-03-03T23:49:28.054Z,-5.70
2018-03-03T23:51:53.800Z,-5.78
2018-03-03T23:54:19.550Z,-5.84
2018-03-03T23:56:45.294Z,-5.80
2018-03-03T23:59:11.032Z,-5.79
